Météo Nord-Pas-de-Calais   La météo au plus près de chez vous

Station météorologique

Observations météo à Brest-Guipavas (29075)

29075001 92 m Dernier relevé à 17:06
18.6°C
Humidité 87 % Vent 32 km/h 1022.3 hPa

Journée consultée

Mercredi 2 Septembre 2026

Synthèse de la journée

Périodes de référence en UTC

Température maximale

21.4°C

à 13:00

06h 06h

Température minimale

13.9°C

à 07:42

18h 18h

Rafale maximale

53 km/h

à 13:00

00h 00h

Précipitations

0.2 mm

Cumul quotidien

06h 06h

Ensoleillement

2h 44 mins

Durée quotidienne

00h 00h

Graphiques de la journée

Heure locale Réduire

Données détaillées

Relevés météo

Pas de 6 minutes Afficher les relevés infra-horaires
Relevés météo détaillés à Brest-Guipavas pour le Mercredi 2 Septembre 2026
Heure Température °C Point de rosée °C Humidité % Vent moyen (raf.), km/h Précipitations mm Température à 10 cm °C Température à 20 cm °C Température à 50 cm °C Température à 100 cm °C Visibilité m État du sol   Ensoleillement min Rayonnement global W/m² Pression hPa Nébulosité Octas
17:06 18.6 °C 17.4 °C 93 % 28 km/h (39 km/h) 0 mm0 mm 18.7 °C 18.9 °C 19.1 °C 18.6 °C 25370 m 0   0 min 59.9 W/m² 1022.1 hPa
17:00 18.7 °C 17.7 °C 94 % 27 km/h (39 km/h) 0 mm0.2 mm 18.7 °C 18.9 °C 19 °C 18.6 °C 19050 m 0   0 min 91.5 W/m² 1022 hPa 8 Octas
16:54 18.5 °C 17.5 °C 94 % 27 km/h (42 km/h) 0 mm0 mm 18.7 °C 18.8 °C 18.9 °C 18.6 °C 19840 m 0   0 min 89 W/m² 1022.1 hPa
16:48 18.6 °C 17.8 °C 95 % 28 km/h (42 km/h) 0 mm0 mm 18.7 °C 18.8 °C 18.9 °C 18.6 °C 16760 m 0   0 min 76.7 W/m² 1022.1 hPa
16:42 18.4 °C 17.4 °C 94 % 30 km/h (44 km/h) 0 mm0 mm 18.7 °C 18.9 °C 19 °C 18.6 °C 8270 m 1   0 min 62.4 W/m² 1022.2 hPa
16:36 18.4 °C 17.4 °C 94 % 31 km/h (44 km/h) 0 mm0 mm 18.7 °C 18.8 °C 18.9 °C 18.6 °C 6380 m 0 min 71.2 W/m² 1022.2 hPa
16:30 18.6 °C 17.6 °C 94 % 28 km/h (41 km/h) 0.2 mm0 mm 18.7 °C 18.9 °C 18.9 °C 18.6 °C 5700 m 1   0 min 75.2 W/m² 1022.3 hPa
16:24 18.6 °C 17.6 °C 94 % 27 km/h (39 km/h) 0 mm0 mm 18.7 °C 18.9 °C 19 °C 18.6 °C 6470 m 1   0 min 63.5 W/m² 1022.4 hPa
16:18 18.7 °C 17.4 °C 92 % 30 km/h (44 km/h) 0 mm0 mm 18.7 °C 18.9 °C 19 °C 18.6 °C 6120 m 1   0 min 61 W/m² 1022.4 hPa
16:12 18.8 °C 17.1 °C 90 % 33 km/h (44 km/h) 0 mm0 mm 18.6 °C 18.9 °C 19 °C 18.6 °C 7030 m 0   0 min 61.8 W/m² 1022.4 hPa
16:06 19.1 °C 16.9 °C 87 % 32 km/h (45 km/h) 0 mm0 mm 18.6 °C 18.9 °C 19.2 °C 18.6 °C 8470 m 1   0 min 76.7 W/m² 1022.3 hPa
16:00 19.1 °C 17.1 °C 88 % 33 km/h (45 km/h) 0 mm0 mm 18.6 °C 18.9 °C 18.9 °C 18.6 °C 19060 m 0   0 min 60.2 W/m² 1022.2 hPa 8 Octas
15:54 19 °C 16.8 °C 87 % 33 km/h (44 km/h) 0 mm0 mm 18.6 °C 18.8 °C 19 °C 18.6 °C 19570 m 0   0 min 55.8 W/m² 1022.2 hPa
15:48 19.1 °C 16.9 °C 87 % 30 km/h (44 km/h) 0 mm0 mm 18.6 °C 18.9 °C 19.1 °C 18.6 °C 18930 m 0   0 min 73.5 W/m² 1022.3 hPa
15:42 19.2 °C 17 °C 87 % 31 km/h (43 km/h) 0 mm0 mm 18.6 °C 18.9 °C 19 °C 18.6 °C 13390 m 0   0 min 78 W/m² 1022.3 hPa
15:36 19.7 °C 17.3 °C 86 % 31 km/h (45 km/h) 0 mm0 mm 18.6 °C 18.8 °C 18.9 °C 18.6 °C 12400 m 0   0 min 92 W/m² 1022.3 hPa
15:30 19.7 °C 16.5 °C 82 % 30 km/h (43 km/h) 0 mm0 mm 18.6 °C 18.8 °C 19 °C 18.6 °C 18460 m 0   0 min 59.5 W/m² 1022.2 hPa
15:24 19.8 °C 16.6 °C 82 % 30 km/h (42 km/h) 0 mm0 mm 18.6 °C 18.9 °C 19.1 °C 18.6 °C 52190 m 0   0 min 89 W/m² 1022.2 hPa
15:18 19.8 °C 16.4 °C 81 % 31 km/h (42 km/h) 0 mm0 mm 18.6 °C 18.9 °C 19 °C 18.6 °C 44530 m 0   0 min 82.4 W/m² 1022.2 hPa
15:12 19.8 °C 16.4 °C 81 % 30 km/h (42 km/h) 0 mm0 mm 18.6 °C 18.9 °C 19 °C 18.6 °C 44960 m 0   0 min 122.9 W/m² 1022.3 hPa
15:06 19.5 °C 16.7 °C 84 % 32 km/h (46 km/h) 0 mm0 mm 18.6 °C 18.9 °C 19 °C 18.6 °C 53520 m 0   0 min 99.8 W/m² 1022.3 hPa
15:00 19.4 °C 16.4 °C 83 % 31 km/h (46 km/h) 0 mm0 mm 18.6 °C 18.9 °C 19 °C 18.6 °C 19770 m 0   0 min 84.2 W/m² 1022.3 hPa 8 Octas
14:54 19.7 °C 16.9 °C 84 % 28 km/h (40 km/h) 0 mm0 mm 18.6 °C 18.9 °C 18.9 °C 18.6 °C 19770 m 0   0 min 115.4 W/m² 1022.3 hPa
14:48 19.6 °C 17 °C 85 % 28 km/h (40 km/h) 0 mm0 mm 18.6 °C 18.9 °C 19 °C 18.6 °C 13110 m 0   0 min 108.8 W/m² 1022.3 hPa
14:42 19.8 °C 16.4 °C 81 % 29 km/h (43 km/h) 0 mm0 mm 18.6 °C 18.9 °C 19.1 °C 18.6 °C 13240 m 0 min 124.5 W/m² 1022.3 hPa
14:36 20.3 °C 16.1 °C 77 % 31 km/h (41 km/h) 0 mm0 mm 18.6 °C 18.9 °C 19 °C 18.6 °C 29000 m 0   0 min 113.6 W/m² 1022.3 hPa
14:30 20.2 °C 16 °C 77 % 33 km/h (45 km/h) 0 mm0 mm 18.6 °C 18.9 °C 19 °C 18.6 °C 57680 m 0   0 min 130 W/m² 1022.3 hPa
14:24 20.2 °C 16.2 °C 78 % 32 km/h (45 km/h) 0 mm0 mm 18.6 °C 18.9 °C 18.9 °C 18.6 °C 52140 m 0   0 min 148.9 W/m² 1022.3 hPa
14:18 20.4 °C 16.2 °C 77 % 32 km/h (42 km/h) 0 mm0 mm 18.5 °C 18.9 °C 19 °C 18.6 °C 56840 m 0   0 min 145.8 W/m² 1022.3 hPa
14:12 20.5 °C 16.1 °C 76 % 30 km/h (41 km/h) 0 mm0 mm 18.5 °C 18.9 °C 19 °C 18.6 °C 60000 m 0   0 min 139.1 W/m² 1022.3 hPa
14:06 20.4 °C 16.4 °C 78 % 29 km/h (40 km/h) 0 mm0 mm 18.5 °C 18.9 °C 19.1 °C 18.6 °C 60000 m 0   0 min 143.1 W/m² 1022.2 hPa
14:00 20 °C 16 °C 78 % 32 km/h (49 km/h) 0 mm0 mm 18.5 °C 18.9 °C 19 °C 18.6 °C 60000 m 0   0 min 124.7 W/m² 1022.3 hPa 8 Octas
13:54 20 °C 15.8 °C 77 % 34 km/h (46 km/h) 0 mm0 mm 18.5 °C 18.9 °C 19 °C 18.6 °C 59240 m 0   0 min 132 W/m² 1022.3 hPa
13:48 20.1 °C 15.9 °C 77 % 32 km/h (45 km/h) 0 mm0 mm 18.5 °C 18.9 °C 19 °C 18.6 °C 59660 m 0   0 min 134.1 W/m² 1022.2 hPa
13:42 20.2 °C 15.8 °C 76 % 32 km/h (45 km/h) 0 mm0 mm 18.5 °C 18.9 °C 19.1 °C 18.6 °C 60000 m 0   0 min 111.8 W/m² 1022.2 hPa
13:36 20.4 °C 15.8 °C 75 % 32 km/h (44 km/h) 0 mm0 mm 18.6 °C 18.9 °C 19.1 °C 18.6 °C 60000 m 0   0 min 128.2 W/m² 1022.1 hPa
13:30 20.6 °C 15.6 °C 73 % 32 km/h (43 km/h) 0 mm0 mm 18.5 °C 18.9 °C 19.1 °C 18.6 °C 60000 m 0   0 min 135.6 W/m² 1022 hPa
13:24 21.2 °C 16.2 °C 73 % 35 km/h (47 km/h) 0 mm0 mm 18.5 °C 18.9 °C 18.9 °C 18.6 °C 60000 m 0   4 min 235.7 W/m² 1022.1 hPa
13:18 20.8 °C 15.8 °C 73 % 35 km/h (47 km/h) 0 mm0 mm 18.5 °C 18.9 °C 19.1 °C 18.6 °C 60000 m 0   3 min 219.6 W/m² 1022.1 hPa
13:12 20.9 °C 15.9 °C 73 % 35 km/h (47 km/h) 0 mm0 mm 18.5 °C 18.9 °C 18.9 °C 18.6 °C 56500 m 0   6 min 235.9 W/m² 1022.1 hPa
13:06 21.1 °C 15.6 °C 71 % 35 km/h (46 km/h) 0 mm0 mm 18.5 °C 18.9 °C 19 °C 18.6 °C 56500 m 0   6 min 263.8 W/m² 1022.2 hPa
13:00 21 °C 16.2 °C 74 % 33 km/h (53 km/h) 0 mm0 mm 18.5 °C 18.9 °C 19.1 °C 18.6 °C 60000 m 0   6 min 250.1 W/m² 1022.2 hPa 7 Octas
12:54 20.4 °C 15.8 °C 75 % 31 km/h (40 km/h) 0 mm0 mm 18.6 °C 18.9 °C 19 °C 18.6 °C 60000 m 0   4 min 197 W/m² 1022.1 hPa
12:48 20.1 °C 15.1 °C 73 % 31 km/h (44 km/h) 0 mm0 mm 18.5 °C 18.9 °C 19 °C 18.6 °C 60000 m 0   1 min 155.7 W/m² 1022.2 hPa
12:42 20.2 °C 15 °C 72 % 30 km/h (46 km/h) 0 mm0 mm 18.5 °C 18.9 °C 19 °C 18.6 °C 60000 m 0   0 min 139 W/m² 1022.3 hPa
12:36 20.8 °C 15.3 °C 71 % 31 km/h (46 km/h) 0 mm0 mm 18.6 °C 18.9 °C 18.9 °C 18.6 °C 60000 m 0   3 min 226.5 W/m² 1022.3 hPa
12:30 21 °C 16.2 °C 74 % 30 km/h (40 km/h) 0 mm0 mm 18.5 °C 18.9 °C 18.9 °C 18.6 °C 60000 m 0   6 min 236.8 W/m² 1022.3 hPa
12:24 20.8 °C 15.8 °C 73 % 28 km/h (44 km/h) 0 mm0 mm 18.6 °C 18.9 °C 18.9 °C 18.6 °C 19730 m 0   6 min 216.4 W/m² 1022.2 hPa
12:18 21.1 °C 16.3 °C 74 % 29 km/h (44 km/h) 0 mm0 mm 18.5 °C 18.9 °C 19 °C 18.6 °C 19730 m 0   6 min 261.9 W/m² 1022.3 hPa
12:12 20.2 °C 15.6 °C 75 % 30 km/h (38 km/h) 0 mm0 mm 18.6 °C 19 °C 19 °C 18.6 °C 60000 m 0   5 min 195.9 W/m² 1022.3 hPa
12:06 19.9 °C 15.1 °C 74 % 29 km/h (39 km/h) 0 mm0 mm 18.6 °C 19 °C 19 °C 18.6 °C 60000 m 0   6 min 219.4 W/m² 1022.3 hPa
12:00 19.6 °C 15 °C 75 % 31 km/h (40 km/h) 0 mm0 mm 18.6 °C 19 °C 19 °C 18.6 °C 60000 m 0   2 min 128.1 W/m² 1022.3 hPa 7 Octas
11:54 19.6 °C 14.8 °C 74 % 32 km/h (40 km/h) 0 mm0 mm 18.6 °C 19 °C 19.1 °C 18.6 °C 60000 m 0   2 min 130.4 W/m² 1022.3 hPa
11:48 19.8 °C 15.2 °C 75 % 31 km/h (40 km/h) 0 mm0 mm 18.6 °C 18.9 °C 19.1 °C 18.6 °C 59110 m 0   3 min 157.2 W/m² 1022.3 hPa
11:42 19.6 °C 14.8 °C 74 % 33 km/h (46 km/h) 0 mm0 mm 18.6 °C 19 °C 19 °C 18.6 °C 60000 m 0   6 min 183.6 W/m² 1022.2 hPa
11:36 19.7 °C 14.9 °C 74 % 32 km/h (45 km/h) 0 mm0 mm 18.6 °C 19 °C 19 °C 18.6 °C 60000 m 0   6 min 166.6 W/m² 1022.2 hPa
11:30 19.9 °C 14.7 °C 72 % 32 km/h (45 km/h) 0 mm0 mm 18.6 °C 19 °C 18.9 °C 18.6 °C 60000 m 0   6 min 203.7 W/m² 1022.1 hPa
11:24 20.1 °C 15.3 °C 74 % 31 km/h (42 km/h) 0 mm0 mm 18.6 °C 19 °C 19.1 °C 18.6 °C 59120 m 0   6 min 211.4 W/m² 1022 hPa
11:18 20 °C 15.2 °C 74 % 27 km/h (38 km/h) 0 mm0 mm 18.6 °C 19 °C 19 °C 18.6 °C 59120 m 0   6 min 201.3 W/m² 1022 hPa
11:12 19.6 °C 15 °C 75 % 28 km/h (42 km/h) 0 mm0 mm 18.6 °C 19 °C 19 °C 18.6 °C 60000 m 0   6 min 194.5 W/m² 1022 hPa
11:06 19.4 °C 15.5 °C 78 % 27 km/h (42 km/h) 0 mm0 mm 18.6 °C 19 °C 19 °C 18.6 °C 60000 m 0   6 min 188.4 W/m² 1022 hPa
11:00 19.4 °C 15.5 °C 78 % 25 km/h (37 km/h) 0 mm0 mm 18.6 °C 19 °C 19 °C 18.6 °C 60000 m 0   6 min 187.1 W/m² 1021.9 hPa
10:54 18.9 °C 15.6 °C 81 % 26 km/h (35 km/h) 0 mm0 mm 18.6 °C 19 °C 19.1 °C 18.6 °C 60000 m 0   5 min 142.5 W/m² 1022 hPa
10:48 18.7 °C 15.2 °C 80 % 26 km/h (35 km/h) 0 mm0 mm 18.6 °C 19 °C 19.1 °C 18.6 °C 60000 m 0   5 min 132 W/m² 1022.1 hPa
10:42 18.5 °C 15.4 °C 82 % 24 km/h (33 km/h) 0 mm0 mm 18.7 °C 19 °C 19 °C 18.6 °C 60000 m 0   2 min 105.6 W/m² 1022 hPa
10:36 18.5 °C 15.4 °C 82 % 24 km/h (35 km/h) 0 mm0 mm 18.7 °C 19 °C 18.9 °C 18.6 °C 60000 m 0   0 min 92.7 W/m² 1022 hPa
10:30 18.4 °C 15.6 °C 84 % 22 km/h (35 km/h) 0 mm0 mm 18.7 °C 19 °C 19 °C 18.6 °C 60000 m 0   0 min 111.8 W/m² 1021.9 hPa
10:24 18.2 °C 15.6 °C 85 % 20 km/h (28 km/h) 0 mm0 mm 18.7 °C 19 °C 19 °C 18.6 °C 60000 m 0   0 min 92.7 W/m² 1021.9 hPa
10:18 17.9 °C 15.3 °C 85 % 21 km/h (29 km/h) 0 mm0 mm 18.7 °C 19 °C 19.1 °C 18.6 °C 60000 m 0   0 min 83.4 W/m² 1021.9 hPa
10:12 17.8 °C 15.4 °C 86 % 21 km/h (26 km/h) 0 mm0 mm 18.7 °C 19 °C 19 °C 18.6 °C 60000 m 0   0 min 68 W/m² 1021.9 hPa
10:06 17.7 °C 15.3 °C 86 % 22 km/h (30 km/h) 0 mm0 mm 18.7 °C 19 °C 18.9 °C 18.6 °C 19040 m 0   0 min 79.8 W/m² 1022 hPa
10:00 17.6 °C 15.2 °C 86 % 19 km/h (29 km/h) 0 mm0 mm 18.7 °C 19 °C 19.1 °C 18.6 °C 60000 m 0   3 min 97.7 W/m² 1022 hPa 7 Octas
09:54 17.4 °C 15.6 °C 89 % 18 km/h (24 km/h) 0 mm0 mm 18.7 °C 19.1 °C 19 °C 18.6 °C 60000 m 0   6 min 128.4 W/m² 1021.9 hPa
09:48 17 °C 15.3 °C 90 % 19 km/h (27 km/h) 0 mm0 mm 18.7 °C 19 °C 19 °C 18.6 °C 60000 m 0   4 min 84.4 W/m² 1022 hPa
09:42 16.8 °C 15.3 °C 91 % 19 km/h (27 km/h) 0 mm0 mm 18.7 °C 19.1 °C 19 °C 18.6 °C 60000 m 0   0 min 61.5 W/m² 1021.9 hPa
09:36 16.6 °C 15.3 °C 92 % 19 km/h (26 km/h) 0 mm0 mm 18.7 °C 19 °C 19.1 °C 18.6 °C 60000 m 0   0 min 55.7 W/m² 1021.9 hPa
09:30 16.5 °C 15.2 °C 92 % 21 km/h (27 km/h) 0 mm0 mm 18.7 °C 19 °C 19 °C 18.6 °C 60000 m 0   0 min 52.3 W/m² 1021.8 hPa
09:24 16.3 °C 15.2 °C 93 % 20 km/h (27 km/h) 0 mm0 mm 18.8 °C 19 °C 19 °C 18.6 °C 60000 m 0   0 min 48.1 W/m² 1021.9 hPa
09:18 16.1 °C 15.1 °C 94 % 19 km/h (27 km/h) 0 mm0 mm 18.8 °C 19.1 °C 18.9 °C 18.6 °C 60000 m 0   0 min 48.4 W/m² 1021.8 hPa
09:12 15.9 °C 14.9 °C 94 % 19 km/h (27 km/h) 0 mm0 mm 18.8 °C 19.1 °C 19 °C 18.6 °C 60000 m 0   5 min 58.4 W/m² 1021.9 hPa
09:06 15.5 °C 14.7 °C 95 % 19 km/h (25 km/h) 0 mm0 mm 18.8 °C 19.1 °C 19 °C 18.6 °C 60000 m 0   5 min 48.6 W/m² 1021.9 hPa
09:00 15.2 °C 14.4 °C 95 % 18 km/h (24 km/h) 0 mm0 mm 18.8 °C 19.1 °C 18.8 °C 18.6 °C 60000 m 0   2 min 41.7 W/m² 1021.9 hPa
08:54 15.1 °C 14.5 °C 96 % 18 km/h (24 km/h) 0 mm0 mm 18.8 °C 19.1 °C 19 °C 18.6 °C 60000 m 0   6 min 45.8 W/m² 1021.8 hPa
08:48 14.9 °C 14.3 °C 96 % 17 km/h (23 km/h) 0 mm0 mm 18.8 °C 19.1 °C 19 °C 18.6 °C 60000 m 0   3 min 36.9 W/m² 1021.8 hPa
08:42 14.7 °C 14.1 °C 96 % 15 km/h (23 km/h) 0 mm0 mm 18.8 °C 19.1 °C 19.1 °C 18.6 °C 60000 m 0   0 min 29.4 W/m² 1021.8 hPa
08:36 14.6 °C 14 °C 96 % 14 km/h (19 km/h) 0 mm0 mm 18.8 °C 19.1 °C 18.9 °C 18.6 °C 60000 m 0   1 min 26.9 W/m² 1021.8 hPa
08:30 14.4 °C 13.8 °C 96 % 13 km/h (17 km/h) 0 mm0 mm 18.8 °C 19.1 °C 19.1 °C 18.6 °C 60000 m 0   0 min 20.5 W/m² 1021.8 hPa
08:24 14.3 °C 13.8 °C 97 % 13 km/h (17 km/h) 0 mm0 mm 18.8 °C 19.1 °C 19 °C 18.6 °C 60000 m 0   0 min 14.7 W/m² 1021.7 hPa
08:18 14.2 °C 13.7 °C 97 % 12 km/h (17 km/h) 0 mm0 mm 18.9 °C 19.1 °C 19.1 °C 18.6 °C 60000 m 0   0 min 11.3 W/m² 1021.7 hPa
08:12 14.2 °C 13.7 °C 97 % 13 km/h (15 km/h) 0 mm0 mm 18.9 °C 19.1 °C 19 °C 18.6 °C 60000 m 0   0 min 9.1 W/m² 1021.6 hPa
08:06 14.2 °C 13.7 °C 97 % 13 km/h (17 km/h) 0 mm0 mm 18.9 °C 19.1 °C 19 °C 18.6 °C 60000 m 0   0 min 7.7 W/m² 1021.6 hPa
08:00 14.1 °C 13.6 °C 97 % 13 km/h (17 km/h) 0 mm0 mm 18.8 °C 19.1 °C 18.9 °C 18.6 °C 58700 m 0   0 min 0 W/m² 1021.6 hPa
07:54 14 °C 13.5 °C 97 % 12 km/h (17 km/h) 0 mm0 mm 18.8 °C 19.1 °C 19.1 °C 18.6 °C 57200 m 0   0 min 0 W/m² 1021.7 hPa
07:48 14 °C 13.5 °C 97 % 11 km/h (14 km/h) 0 mm0 mm 18.9 °C 19.1 °C 19 °C 18.6 °C 54350 m 0   0 min 0 W/m² 1021.7 hPa
07:42 13.9 °C 13.4 °C 97 % 10 km/h (14 km/h) 0 mm0 mm 18.9 °C 19.1 °C 19 °C 18.6 °C 52940 m 0   0 min 0 W/m² 1021.7 hPa
07:36 14 °C 13.5 °C 97 % 12 km/h (15 km/h) 0 mm0 mm 18.9 °C 19.1 °C 19 °C 18.6 °C 51490 m 0   0 min 0 W/m² 1021.7 hPa
07:30 14 °C 13.5 °C 97 % 12 km/h (15 km/h) 0 mm0 mm 18.9 °C 19.1 °C 19.1 °C 18.6 °C 49130 m 0   0 min 0 W/m² 1021.7 hPa
07:24 14 °C 13.5 °C 97 % 11 km/h (14 km/h) 0 mm0 mm 18.9 °C 19.1 °C 19 °C 18.6 °C 48910 m 0   0 min 0 W/m² 1021.7 hPa
07:18 14.1 °C 13.6 °C 97 % 10 km/h (14 km/h) 0 mm0 mm 18.9 °C 19.1 °C 19.1 °C 18.6 °C 49690 m 0   0 min 0 W/m² 1021.8 hPa
07:12 14.1 °C 13.6 °C 97 % 10 km/h (14 km/h) 0 mm0 mm 18.9 °C 19.1 °C 19 °C 18.6 °C 50760 m 0   0 min 0 W/m² 1021.8 hPa
07:06 14.1 °C 13.6 °C 97 % 10 km/h (13 km/h) 0 mm0 mm 18.9 °C 19.1 °C 19 °C 18.6 °C 49290 m 0   0 min 0 W/m² 1021.8 hPa
07:00 14.2 °C 13.7 °C 97 % 10 km/h (12 km/h) 0 mm0.2 mm 18.9 °C 19.2 °C 18.9 °C 18.6 °C 47840 m 0   0 min 0 W/m² 1021.7 hPa 6 Octas
06:54 14.2 °C 13.7 °C 97 % 10 km/h (13 km/h) 0 mm0 mm 19 °C 19.1 °C 19 °C 18.6 °C 49420 m 0   0 min 0 W/m² 1021.6 hPa
06:48 14.1 °C 13.6 °C 97 % 11 km/h (15 km/h) 0 mm0 mm 19 °C 19.2 °C 19 °C 18.6 °C 50950 m 0   0 min 0 W/m² 1021.6 hPa
06:42 14.1 °C 13.6 °C 97 % 12 km/h (16 km/h) 0 mm0 mm 18.9 °C 19.1 °C 19 °C 18.6 °C 50110 m 0   0 min 0 W/m² 1021.6 hPa
06:36 14.1 °C 13.6 °C 97 % 12 km/h (16 km/h) 0 mm0 mm 18.9 °C 19.2 °C 19.1 °C 18.6 °C 49280 m 0   0 min 0 W/m² 1021.6 hPa
06:30 14.2 °C 13.7 °C 97 % 12 km/h (16 km/h) 0.2 mm0 mm 19 °C 19.2 °C 19 °C 18.6 °C 48570 m 0   0 min 0 W/m² 1021.7 hPa
06:24 14.2 °C 13.7 °C 97 % 12 km/h (17 km/h) 0 mm0 mm 19 °C 19.2 °C 19 °C 18.6 °C 47050 m 0   0 min 0 W/m² 1021.7 hPa
06:18 14.2 °C 13.6 °C 96 % 11 km/h (17 km/h) 0 mm0 mm 19 °C 19.2 °C 19 °C 18.6 °C 48460 m 0   0 min 0 W/m² 1021.6 hPa
06:12 14.3 °C 13.7 °C 96 % 11 km/h (14 km/h) 0 mm0 mm 19 °C 19.1 °C 19.2 °C 18.6 °C 51040 m 0   0 min 0 W/m² 1021.7 hPa
06:06 14.3 °C 13.8 °C 97 % 11 km/h (14 km/h) 0 mm0 mm 19 °C 19.1 °C 19 °C 18.6 °C 52010 m 0   0 min 0 W/m² 1021.7 hPa
06:00 14.3 °C 13.8 °C 97 % 12 km/h (17 km/h) 0 mm0 mm 19 °C 19.2 °C 19.1 °C 18.6 °C 53380 m 0   0 min 0 W/m² 1021.7 hPa
05:54 14.3 °C 13.7 °C 96 % 14 km/h (17 km/h) 0 mm0 mm 19 °C 19.2 °C 19 °C 18.6 °C 55150 m 0   0 min 0 W/m² 1021.7 hPa
05:48 14.4 °C 13.8 °C 96 % 13 km/h (17 km/h) 0 mm0 mm 19 °C 19.2 °C 18.9 °C 18.6 °C 56800 m 0   0 min 0 W/m² 1021.7 hPa
05:42 14.4 °C 13.8 °C 96 % 12 km/h (15 km/h) 0 mm0 mm 19 °C 19.2 °C 19.1 °C 18.6 °C 19160 m 0   0 min 0 W/m² 1021.7 hPa
05:36 14.4 °C 13.8 °C 96 % 11 km/h (15 km/h) 0 mm0 mm 19 °C 19.2 °C 18.9 °C 18.6 °C 19160 m 0   0 min 0 W/m² 1021.8 hPa
05:30 14.3 °C 13.7 °C 96 % 12 km/h (15 km/h) 0 mm0 mm 19 °C 19.2 °C 19 °C 18.6 °C 59520 m 0   0 min 0 W/m² 1021.8 hPa
05:24 14.5 °C 13.9 °C 96 % 12 km/h (15 km/h) 0 mm0 mm 19 °C 19.2 °C 18.9 °C 18.6 °C 19250 m 0   0 min 0 W/m² 1021.8 hPa
05:18 14.5 °C 13.9 °C 96 % 11 km/h (17 km/h) 0 mm0 mm 19 °C 19.2 °C 19 °C 18.6 °C 19910 m 0   0 min 0 W/m² 1021.8 hPa
05:12 14.6 °C 14 °C 96 % 13 km/h (18 km/h) 0 mm0 mm 19 °C 19.2 °C 19 °C 18.6 °C 17810 m 0   0 min 0 W/m² 1021.9 hPa
05:06 14.6 °C 14 °C 96 % 13 km/h (17 km/h) 0 mm0 mm 19 °C 19.2 °C 18.9 °C 18.6 °C 14830 m 0   0 min 0 W/m² 1021.8 hPa
05:00 14.6 °C 13.8 °C 95 % 11 km/h (16 km/h) 0 mm0 mm 19 °C 19.2 °C 19.1 °C 18.6 °C 60000 m 0   0 min 0 W/m² 1021.8 hPa 7 Octas
04:54 14.7 °C 13.9 °C 95 % 11 km/h (15 km/h) 0 mm0 mm 19.1 °C 19.2 °C 19 °C 18.6 °C 48540 m 0   0 min 0 W/m² 1022 hPa
04:48 14.7 °C 13.9 °C 95 % 13 km/h (18 km/h) 0 mm0 mm 19.1 °C 19.2 °C 19 °C 18.6 °C 9320 m 0   0 min 0 W/m² 1021.9 hPa
04:42 14.7 °C 13.9 °C 95 % 14 km/h (18 km/h) 0 mm0 mm 19.1 °C 19.2 °C 19 °C 18.6 °C 16460 m 0   0 min 0 W/m² 1021.9 hPa
04:36 14.7 °C 13.9 °C 95 % 14 km/h (19 km/h) 0 mm0 mm 19.1 °C 19.2 °C 19 °C 18.6 °C 60000 m 0   0 min 0 W/m² 1022 hPa
04:30 14.6 °C 13.8 °C 95 % 13 km/h (17 km/h) 0 mm0 mm 19.1 °C 19.2 °C 19 °C 18.6 °C 60000 m 0   0 min 0 W/m² 1022.1 hPa
04:24 14.7 °C 13.9 °C 95 % 12 km/h (15 km/h) 0 mm0 mm 19.1 °C 19.2 °C 19 °C 18.6 °C 60000 m 0   0 min 0 W/m² 1022.2 hPa
04:18 14.8 °C 14 °C 95 % 12 km/h (15 km/h) 0 mm0 mm 19.1 °C 19.2 °C 19.1 °C 18.6 °C 60000 m 0   0 min 0 W/m² 1022.2 hPa
04:12 14.8 °C 13.8 °C 94 % 11 km/h (14 km/h) 0 mm0 mm 19.1 °C 19.2 °C 18.9 °C 18.6 °C 60000 m 0   0 min 0 W/m² 1022.2 hPa
04:06 14.8 °C 13.8 °C 94 % 11 km/h (15 km/h) 0 mm0 mm 19.1 °C 19.2 °C 19 °C 18.6 °C 60000 m 0   0 min 0 W/m² 1022.2 hPa
04:00 14.9 °C 13.9 °C 94 % 12 km/h (17 km/h) 0 mm0 mm 19.1 °C 19.2 °C 19 °C 18.6 °C 60000 m 0   0 min 0 W/m² 1022.2 hPa 8 Octas
03:54 14.9 °C 14.1 °C 95 % 12 km/h (17 km/h) 0 mm0 mm 19.1 °C 19.2 °C 19 °C 18.6 °C 60000 m 0   0 min 0 W/m² 1022.2 hPa
03:48 15 °C 14.2 °C 95 % 11 km/h (14 km/h) 0 mm0 mm 19.1 °C 19.2 °C 19.1 °C 18.6 °C 60000 m 0   0 min 0 W/m² 1022.3 hPa
03:42 14.9 °C 14.1 °C 95 % 10 km/h (14 km/h) 0 mm0 mm 19.1 °C 19.2 °C 19 °C 18.6 °C 60000 m 0   0 min 0 W/m² 1022.3 hPa
03:36 15 °C 14.2 °C 95 % 10 km/h (14 km/h) 0 mm0 mm 19.1 °C 19.2 °C 19.1 °C 18.6 °C 60000 m 0   0 min 0 W/m² 1022.3 hPa
03:30 15 °C 14.2 °C 95 % 10 km/h (13 km/h) 0 mm0 mm 19.1 °C 19.2 °C 19 °C 18.6 °C 60000 m 0   0 min 0 W/m² 1022.3 hPa
03:24 15 °C 14.2 °C 95 % 10 km/h (14 km/h) 0 mm0 mm 19.2 °C 19.2 °C 19 °C 18.6 °C 60000 m 0   0 min 0 W/m² 1022.4 hPa
03:18 15 °C 14.2 °C 95 % 11 km/h (14 km/h) 0 mm0 mm 19.2 °C 19.2 °C 19 °C 18.6 °C 60000 m 0   0 min 0 W/m² 1022.4 hPa
03:12 15 °C 14.2 °C 95 % 12 km/h (15 km/h) 0 mm0 mm 19.2 °C 19.2 °C 19.1 °C 18.6 °C 60000 m 0   0 min 0 W/m² 1022.2 hPa
03:06 15 °C 14.2 °C 95 % 12 km/h (15 km/h) 0 mm0 mm 19.2 °C 19.2 °C 19.1 °C 18.6 °C 60000 m 0   0 min 0 W/m² 1022.3 hPa
03:00 15 °C 14 °C 94 % 12 km/h (17 km/h) 0 mm0 mm 19.2 °C 19.2 °C 19 °C 18.6 °C 18750 m 0   0 min 0 W/m² 1022.3 hPa 8 Octas
02:54 15 °C 14.2 °C 95 % 12 km/h (15 km/h) 0 mm0 mm 19.2 °C 19.2 °C 19 °C 18.6 °C 18750 m 0   0 min 0 W/m² 1022.3 hPa
02:48 15 °C 14.2 °C 95 % 12 km/h (14 km/h) 0 mm0 mm 19.2 °C 19.2 °C 19 °C 18.6 °C 60000 m 0   0 min 0 W/m² 1022.4 hPa
02:42 15 °C 14 °C 94 % 12 km/h (15 km/h) 0 mm0 mm 19.2 °C 19.2 °C 19 °C 18.6 °C 60000 m 0   0 min 0 W/m² 1022.4 hPa
02:36 14.9 °C 13.9 °C 94 % 12 km/h (15 km/h) 0 mm0 mm 19.2 °C 19.2 °C 19 °C 18.6 °C 60000 m 0   0 min 0 W/m² 1022.4 hPa
02:30 14.8 °C 13.7 °C 93 % 12 km/h (15 km/h) 0 mm0 mm 19.2 °C 19.2 °C 19 °C 18.6 °C 60000 m 0   0 min 0 W/m² 1022.4 hPa
02:24 14.8 °C 13.7 °C 93 % 11 km/h (15 km/h) 0 mm0 mm 19.2 °C 19.2 °C 19 °C 18.6 °C 60000 m 0   0 min 0 W/m² 1022.5 hPa
02:18 14.8 °C 13.7 °C 93 % 9 km/h (12 km/h) 0 mm0 mm 19.2 °C 19.2 °C 19 °C 18.6 °C 60000 m 0   0 min 0 W/m² 1022.5 hPa
02:12 14.8 °C 13.7 °C 93 % 9 km/h (12 km/h) 0 mm0 mm 19.2 °C 19.2 °C 18.9 °C 18.6 °C 60000 m 0   0 min 0 W/m² 1022.4 hPa
02:06 14.8 °C 13.7 °C 93 % 9 km/h (12 km/h) 0 mm0 mm 19.2 °C 19.2 °C 19 °C 18.6 °C 60000 m 0   0 min 0 W/m² 1022.4 hPa
02:00 14.9 °C 13.8 °C 93 % 9 km/h (12 km/h) 0 mm0 mm 19.2 °C 19.2 °C 18.9 °C 18.6 °C 60000 m 0   0 min 0 W/m² 1022.4 hPa 8 Octas
01:54 14.8 °C 13.8 °C 94 % 10 km/h (12 km/h) 0 mm0 mm 19.2 °C 19.2 °C 19 °C 18.6 °C 60000 m 0   0 min 0 W/m² 1022.5 hPa
01:48 14.8 °C 13.8 °C 94 % 10 km/h (13 km/h) 0 mm0 mm 19.2 °C 19.2 °C 19 °C 18.6 °C 60000 m 0   0 min 0 W/m² 1022.6 hPa
01:42 14.8 °C 13.8 °C 94 % 10 km/h (13 km/h) 0 mm0 mm 19.2 °C 19.2 °C 19.1 °C 18.6 °C 60000 m 0   0 min 0 W/m² 1022.6 hPa
01:36 14.8 °C 13.8 °C 94 % 10 km/h (13 km/h) 0 mm0 mm 19.2 °C 19.2 °C 19 °C 18.6 °C 60000 m 0   0 min 0 W/m² 1022.6 hPa
01:30 14.9 °C 13.9 °C 94 % 10 km/h (13 km/h) 0 mm0 mm 19.3 °C 19.2 °C 18.9 °C 18.6 °C 60000 m 0   0 min 0 W/m² 1022.7 hPa
01:24 14.9 °C 13.9 °C 94 % 10 km/h (13 km/h) 0 mm0 mm 19.2 °C 19.2 °C 19.1 °C 18.6 °C 60000 m 0   0 min 0 W/m² 1022.5 hPa
01:18 14.9 °C 13.9 °C 94 % 10 km/h (13 km/h) 0 mm0 mm 19.3 °C 19.2 °C 19 °C 18.6 °C 60000 m 0   0 min 0 W/m² 1022.7 hPa
01:12 14.8 °C 13.8 °C 94 % 10 km/h (12 km/h) 0 mm0 mm 19.2 °C 19.2 °C 19 °C 18.6 °C 60000 m 0   0 min 0 W/m² 1022.7 hPa
01:06 14.8 °C 13.8 °C 94 % 9 km/h (12 km/h) 0 mm0 mm 19.3 °C 19.2 °C 19.1 °C 18.6 °C 60000 m 0   0 min 0 W/m² 1022.8 hPa
01:00 14.8 °C 13.7 °C 93 % 9 km/h (12 km/h) 0 mm0 mm 19.3 °C 19.2 °C 19 °C 18.6 °C 60000 m 0   0 min 0 W/m² 1022.9 hPa 8 Octas
00:54 14.8 °C 13.7 °C 93 % 9 km/h (12 km/h) 0 mm0 mm 19.3 °C 19.2 °C 19.1 °C 18.6 °C 60000 m 0   0 min 0 W/m² 1022.9 hPa
00:48 14.9 °C 13.8 °C 93 % 8 km/h (10 km/h) 0 mm0 mm 19.3 °C 19.2 °C 19 °C 18.6 °C 60000 m 0   0 min 0 W/m² 1022.9 hPa
00:42 14.9 °C 13.8 °C 93 % 8 km/h (10 km/h) 0 mm0 mm 19.3 °C 19.2 °C 19.1 °C 18.6 °C 60000 m 0   0 min 0 W/m² 1023 hPa
00:36 15 °C 13.9 °C 93 % 8 km/h (10 km/h) 0 mm0 mm 19.3 °C 19.2 °C 19 °C 18.6 °C 60000 m 0   0 min 0 W/m² 1023 hPa
00:30 15 °C 13.9 °C 93 % 8 km/h (10 km/h) 0 mm0 mm 19.3 °C 19.2 °C 19.1 °C 18.6 °C 59480 m 0   0 min 0 W/m² 1023 hPa
00:24 15 °C 13.9 °C 93 % 8 km/h (12 km/h) 0 mm0 mm 19.3 °C 19.2 °C 19 °C 18.6 °C 59480 m 0   0 min 0 W/m² 1023.1 hPa
00:18 15 °C 13.9 °C 93 % 9 km/h (12 km/h) 0 mm0 mm 19.3 °C 19.2 °C 19 °C 18.6 °C 56630 m 0   0 min 0 W/m² 1023 hPa
00:12 15 °C 13.9 °C 93 % 8 km/h (11 km/h) 0 mm0 mm 19.3 °C 19.2 °C 19 °C 18.6 °C 55290 m 0   0 min 0 W/m² 1023 hPa
00:06 15 °C 13.9 °C 93 % 6 km/h (9 km/h) 0 mm0 mm 19.3 °C 19.2 °C 18.9 °C 18.6 °C 58350 m 0   0 min 0 W/m² 1023 hPa
00:00 15 °C 13.7 °C 92 % 6 km/h (8 km/h) 0 mm0 mm 19.3 °C 19.2 °C 19 °C 18.6 °C 60000 m 0   0 min 0 W/m² 1023.1 hPa 8 Octas

Données via Météo-France

Relevés météo à Brest-Guipavas

Cette page rassemble les observations de la station de Brest-Guipavas : température, humidité, vent, précipitations et pression atmosphérique. Les graphiques facilitent le suivi de la journée, tandis que le tableau donne accès aux mesures horaires et infra-horaires disponibles.

Pour replacer ces mesures dans leur contexte, consultez la climatologie de Brest-Guipavas ainsi que ses normales et records. Retrouvez aussi la carte des observations météo en temps réel.